Time;durP1;ratioP1;P1;durP2;ratioP2;P2;SDS_P1;SDS_P2;PMS_P1;PMS_P2;Temp;Humidity;BMP_temperature;BMP_pressure;BME280_temperature;BME280_humidity;BME280_pressure;Samples;Min_cycle;Max_cycle;Signal;HPM_P1;HPM_P2
2023/08/10 00:01:45;;;;;;;4.40;2.40;;;;;;;16.88;70.70;99299.27;223333;182;137699;-62
2023/08/10 00:06:49;;;;;;;4.90;2.80;;;;;;;16.83;70.76;99298.63;223329;182;145755;-61
2023/08/10 00:11:52;;;;;;;6.30;3.00;;;;;;;16.80;71.13;99290.42;223263;182;139284;-64
2023/08/10 00:16:55;;;;;;;6.10;4.10;;;;;;;16.83;71.35;99289.64;223332;182;139522;-65
2023/08/10 00:22:04;;;;;;;6.60;3.50;;;;;;;16.83;71.51;99294.82;223339;183;145938;-64
2023/08/10 00:27:25;;;;;;;6.70;4.10;;;;;;;16.79;71.48;99292.86;223298;181;139162;-64
2023/08/10 00:32:28;;;;;;;5.10;4.20;;;;;;;16.72;71.69;99290.17;223417;182;136604;-63
2023/08/10 00:37:32;;;;;;;6.20;4.40;;;;;;;16.65;71.82;99297.90;223361;182;146010;-65
2023/08/10 00:42:35;;;;;;;5.80;3.80;;;;;;;16.61;71.98;99305.94;223240;182;139193;-64
2023/08/10 00:47:39;;;;;;;6.10;4.00;;;;;;;16.64;71.76;99307.30;223352;182;137854;-64
2023/08/10 00:52:43;;;;;;;7.00;3.80;;;;;;;16.62;71.49;99309.85;223317;182;146910;-65
2023/08/10 00:57:46;;;;;;;5.80;3.70;;;;;;;16.59;71.40;99317.46;223262;181;140919;-62
2023/08/10 01:02:49;;;;;;;4.90;3.60;;;;;;;16.57;71.34;99317.57;223294;181;138062;-63
2023/08/10 01:08:03;;;;;;;6.30;3.50;;;;;;;16.55;71.42;99313.05;223247;181;147172;-59
2023/08/10 01:13:36;;;;;;;4.60;3.20;;;;;;;16.56;71.37;99319.30;223382;181;150296;-60
2023/08/10 01:18:40;;;;;;;4.80;3.40;;;;;;;16.61;71.32;99318.02;223451;181;137635;-62
2023/08/10 01:23:48;;;;;;;5.90;3.70;;;;;;;16.64;71.22;99318.80;223361;181;146017;-62
2023/08/10 01:28:52;;;;;;;5.00;3.90;;;;;;;16.65;71.12;99325.91;223311;181;140368;-62
2023/08/10 01:33:56;;;;;;;6.00;4.10;;;;;;;16.62;71.22;99331.48;223346;181;136909;-61
2023/08/10 01:39:00;;;;;;;5.20;4.10;;;;;;;16.59;71.28;99336.02;223323;182;145698;-62
2023/08/10 01:44:04;;;;;;;6.50;4.40;;;;;;;16.57;71.27;99338.34;223282;182;139022;-61
2023/08/10 01:49:11;;;;;;;6.20;4.50;;;;;;;16.55;71.39;99340.30;223379;181;137222;-62
2023/08/10 01:54:16;;;;;;;6.70;4.90;;;;;;;16.49;71.62;99347.23;223337;181;147540;-61
2023/08/10 01:59:21;;;;;;;7.30;4.00;;;;;;;16.50;71.73;99343.45;223311;181;139350;-61
2023/08/10 02:04:24;;;;;;;8.20;4.40;;;;;;;16.54;71.72;99346.96;223278;181;137365;-61
2023/08/10 02:09:30;;;;;;;7.50;5.30;;;;;;;16.50;71.68;99343.92;223410;181;145903;-62
2023/08/10 02:14:38;;;;;;;6.70;5.00;;;;;;;16.48;71.82;99343.89;223403;181;139356;-62
2023/08/10 02:19:41;;;;;;;8.50;5.80;;;;;;;16.45;71.82;99348.28;223282;183;137531;-61
2023/08/10 02:24:44;;;;;;;8.10;5.90;;;;;;;16.45;71.97;99352.95;223295;181;145549;-60
2023/08/10 02:29:47;;;;;;;11.50;5.30;;;;;;;16.44;72.01;99352.48;223242;181;139009;-60
2023/08/10 02:34:50;;;;;;;9.40;5.30;;;;;;;16.43;72.04;99347.20;223328;182;137501;-59
2023/08/10 02:39:54;;;;;;;9.30;5.50;;;;;;;16.43;72.17;99348.42;223354;181;146889;-59
2023/08/10 02:44:57;;;;;;;7.50;5.50;;;;;;;16.43;72.09;99350.58;223452;182;138863;-61
2023/08/10 02:50:01;;;;;;;7.60;4.70;;;;;;;16.46;71.85;99352.85;223304;182;137536;-61
2023/08/10 02:55:05;;;;;;;7.30;4.70;;;;;;;16.40;71.62;99355.16;223356;181;146407;-60
2023/08/10 03:00:12;;;;;;;7.70;5.10;;;;;;;16.26;71.61;99359.68;223287;182;138893;-61
2023/08/10 03:05:18;;;;;;;8.00;4.20;;;;;;;16.14;71.99;99368.33;223358;182;137489;-61
2023/08/10 03:10:21;;;;;;;7.60;3.90;;;;;;;16.13;72.07;99373.44;223441;181;145718;-62
2023/08/10 03:15:24;;;;;;;7.80;4.20;;;;;;;16.16;72.13;99375.29;223373;181;139023;-61
2023/08/10 03:20:28;;;;;;;9.00;3.80;;;;;;;16.22;71.91;99375.19;223374;182;137750;-60
2023/08/10 03:25:32;;;;;;;6.20;4.40;;;;;;;16.21;71.58;99377.64;223365;181;146383;-61
2023/08/10 03:30:36;;;;;;;5.10;4.20;;;;;;;16.13;71.66;99380.42;223338;181;140633;-60
2023/08/10 03:35:40;;;;;;;7.50;4.20;;;;;;;16.08;71.76;99384.72;223444;182;137073;-60
2023/08/10 03:40:43;;;;;;;55.20;44.50;;;;;;;16.05;72.04;99384.95;223390;181;146557;-60
2023/08/10 03:45:46;;;;;;;84.50;69.90;;;;;;;16.06;71.97;99390.61;223251;181;139000;-60
2023/08/10 03:50:52;;;;;;;13.60;8.80;;;;;;;16.14;71.94;99388.42;223352;181;137618;-60
2023/08/10 03:55:56;;;;;;;7.70;5.20;;;;;;;16.22;71.95;99394.59;223370;181;145803;-61
2023/08/10 04:01:01;;;;;;;6.00;4.70;;;;;;;16.21;71.45;99397.45;223389;212;139121;-61
2023/08/10 04:06:06;;;;;;;6.90;4.80;;;;;;;16.16;71.49;99402.38;223356;182;136849;-60
2023/08/10 04:11:09;;;;;;;6.80;4.50;;;;;;;16.11;71.57;99407.75;223282;181;145810;-60
2023/08/10 04:16:13;;;;;;;6.10;5.20;;;;;;;16.09;71.84;99414.16;223272;181;140036;-60
2023/08/10 04:21:16;;;;;;;27.90;22.90;;;;;;;16.11;71.85;99416.91;223333;182;136949;-62
2023/08/10 04:26:22;;;;;;;6.80;4.70;;;;;;;16.11;71.34;99421.58;223397;181;145766;-62
2023/08/10 04:31:27;;;;;;;6.50;4.60;;;;;;;16.13;71.13;99425.19;223302;181;139441;-63
2023/08/10 04:36:30;;;;;;;7.30;4.50;;;;;;;16.16;71.20;99426.86;223330;181;137439;-60
2023/08/10 04:41:33;;;;;;;5.80;4.20;;;;;;;16.22;71.25;99424.48;223311;181;145967;-61
2023/08/10 04:46:36;;;;;;;6.80;4.50;;;;;;;16.24;71.06;99423.91;223364;181;139024;-61
2023/08/10 04:51:40;;;;;;;8.80;4.60;;;;;;;16.25;70.90;99430.29;223235;181;138148;-61
2023/08/10 04:56:43;;;;;;;7.70;4.60;;;;;;;16.23;71.03;99430.66;223346;181;146909;-61
2023/08/10 05:01:47;;;;;;;6.40;4.20;;;;;;;16.24;70.89;99430.77;223273;181;138542;-61
2023/08/10 05:06:55;;;;;;;5.50;4.30;;;;;;;16.28;70.75;99440.63;223370;181;138534;-62
2023/08/10 05:12:00;;;;;;;6.30;4.30;;;;;;;16.32;70.44;99443.19;223327;181;147489;-62
2023/08/10 05:17:04;;;;;;;7.70;4.00;;;;;;;16.38;70.18;99445.02;223352;181;141199;-61
2023/08/10 05:22:08;;;;;;;6.20;4.40;;;;;;;16.43;70.22;99451.45;223292;181;137652;-62
2023/08/10 05:27:11;;;;;;;6.20;4.40;;;;;;;16.51;70.71;99455.10;223401;181;146694;-62
2023/08/10 05:32:14;;;;;;;4.90;4.10;;;;;;;16.56;70.63;99462.59;223285;181;137988;-63
2023/08/10 05:37:21;;;;;;;7.40;4.10;;;;;;;16.60;69.86;99468.48;223308;181;137585;-60
2023/08/10 05:42:24;;;;;;;4.40;3.70;;;;;;;16.68;70.19;99477.36;223340;181;146421;-62
2023/08/10 05:47:28;;;;;;;4.90;3.70;;;;;;;16.77;69.73;99476.67;223282;181;138771;-62
2023/08/10 05:52:31;;;;;;;7.50;4.10;;;;;;;16.75;68.81;99480.35;223340;181;137502;-61
2023/08/10 05:57:35;;;;;;;8.10;4.30;;;;;;;16.71;68.63;99478.56;223369;181;145765;-61
2023/08/10 06:02:38;;;;;;;6.80;4.70;;;;;;;16.65;68.41;99481.36;223426;181;138937;-62
2023/08/10 06:07:42;;;;;;;7.40;5.70;;;;;;;16.60;68.56;99487.89;222400;181;137118;-64
2023/08/10 06:12:45;;;;;;;7.50;5.80;;;;;;;16.55;68.95;99493.80;223346;181;146776;-62
2023/08/10 06:17:49;;;;;;;8.90;6.00;;;;;;;16.56;69.01;99499.80;223368;181;138582;-62
2023/08/10 06:22:53;;;;;;;8.90;6.00;;;;;;;16.60;68.99;99502.04;223408;181;137703;-62
2023/08/10 06:28:00;;;;;;;7.60;5.60;;;;;;;16.62;68.73;99509.02;223282;181;146535;-61
2023/08/10 06:33:07;;;;;;;6.80;5.00;;;;;;;16.66;68.70;99516.96;223375;181;140035;-61
2023/08/10 06:38:10;;;;;;;6.80;5.20;;;;;;;16.72;68.51;99514.66;223417;182;136968;-62
2023/08/10 06:43:13;;;;;;;7.20;4.60;;;;;;;16.73;68.44;99519.95;223443;181;146276;-62
2023/08/10 06:48:23;;;;;;;10.50;6.30;;;;;;;16.76;68.52;99526.02;223479;181;138906;-64
2023/08/10 06:53:27;;;;;;;9.70;6.60;;;;;;;16.76;68.40;99526.27;223349;182;137977;-66
2023/08/10 06:58:30;;;;;;;11.80;6.50;;;;;;;16.72;68.29;99534.19;223352;181;147871;-62
2023/08/10 07:03:36;;;;;;;12.80;8.20;;;;;;;16.69;68.47;99535.88;223424;181;140461;-62
2023/08/10 07:08:39;;;;;;;9.30;7.10;;;;;;;16.66;68.81;99537.19;223276;181;138124;-61
2023/08/10 07:13:42;;;;;;;10.80;7.10;;;;;;;16.67;69.11;99541.21;223425;181;147810;-61
2023/08/10 07:18:46;;;;;;;11.20;7.40;;;;;;;16.75;69.14;99539.89;223374;181;139062;-62
2023/08/10 07:23:49;;;;;;;13.70;7.60;;;;;;;16.91;69.02;99541.92;223406;181;138352;-61
2023/08/10 07:28:52;;;;;;;10.80;7.90;;;;;;;17.02;68.75;99552.27;223270;181;147806;-62
2023/08/10 07:33:56;;;;;;;11.00;8.20;;;;;;;17.13;68.47;99556.08;223373;181;139279;-63
2023/08/10 07:38:59;;;;;;;16.90;7.50;;;;;;;17.20;68.40;99559.07;223419;182;141228;-60
2023/08/10 07:44:03;;;;;;;9.60;7.00;;;;;;;17.20;68.05;99557.46;223304;182;150357;-61
2023/08/10 07:49:06;;;;;;;8.50;6.50;;;;;;;17.21;68.03;99559.53;223411;181;138736;-61
2023/08/10 08:27:06;;;;;;;5.60;3.00;;;;;;;18.07;65.43;99528.66;221554;193;667194;-62
2023/08/10 08:32:10;;;;;;;7.40;3.20;;;;;;;18.20;64.83;99525.44;222903;186;137831;-65
2023/08/10 08:37:28;;;;;;;6.60;2.50;;;;;;;18.33;63.85;99526.45;223109;184;144045;-63
2023/08/10 08:42:32;;;;;;;67.70;49.30;;;;;;;18.50;62.43;99534.74;223152;184;140031;-63
2023/08/10 08:47:36;;;;;;;13.30;8.70;;;;;;;18.79;63.25;99535.65;223369;181;136908;-64
2023/08/10 08:52:42;;;;;;;9.60;7.40;;;;;;;19.16;65.03;99528.33;223429;181;146387;-63
2023/08/10 08:57:46;;;;;;;;;;;;;;;19.52;64.37;99527.06;223401;181;140450;-63
2023/08/10 09:02:51;;;;;;;12.40;7.10;;;;;;;19.81;63.70;99526.25;223622;182;128591;-63
2023/08/10 09:07:55;;;;;;;11.00;5.90;;;;;;;20.06;63.01;99519.77;223477;181;143608;-62
2023/08/10 09:13:12;;;;;;;8.00;3.30;;;;;;;20.24;61.47;99518.27;223444;181;140254;-62
2023/08/10 09:18:15;;;;;;;5.20;3.40;;;;;;;20.34;59.60;99515.65;223403;181;137867;-62
2023/08/10 09:23:19;;;;;;;9.50;4.60;;;;;;;20.49;58.27;99517.33;223395;181;146518;-61
2023/08/10 09:28:22;;;;;;;8.80;2.20;;;;;;;20.63;56.50;99518.50;223374;182;138793;-62
2023/08/10 09:33:31;;;;;;;5.50;2.30;;;;;;;20.59;55.24;99524.69;223448;182;137308;-63
2023/08/10 09:38:35;;;;;;;6.00;2.20;;;;;;;20.51;54.62;99522.71;223323;182;146865;-62
2023/08/10 09:43:39;;;;;;;3.40;2.10;;;;;;;20.34;54.50;99523.77;223432;182;140892;-62
2023/08/10 09:48:45;;;;;;;8.30;2.20;;;;;;;20.18;54.77;99524.75;223318;182;136992;-62
2023/08/10 09:53:49;;;;;;;5.10;2.10;;;;;;;20.02;54.12;99529.86;223435;182;147296;-62
2023/08/10 09:58:52;;;;;;;5.30;2.10;;;;;;;19.92;54.70;99533.67;223371;182;140870;-61
2023/08/10 10:03:56;;;;;;;8.70;2.70;;;;;;;19.88;54.78;99534.79;223384;182;138312;-62
2023/08/10 10:09:03;;;;;;;8.70;3.10;;;;;;;19.85;54.90;99530.76;223446;181;145916;-62
2023/08/10 10:14:06;;;;;;;8.60;2.40;;;;;;;19.86;55.85;99533.00;223338;181;148500;-62
2023/08/10 10:19:10;;;;;;;5.40;2.50;;;;;;;19.87;55.58;99535.91;223424;181;137791;-62
2023/08/10 10:24:18;;;;;;;4.00;2.10;;;;;;;19.90;55.81;99534.41;223310;182;147133;-62
2023/08/10 10:29:21;;;;;;;5.20;2.40;;;;;;;19.92;56.59;99531.95;223346;181;138783;-62
2023/08/10 10:34:32;;;;;;;5.00;2.60;;;;;;;19.92;56.69;99535.06;223382;182;137205;-62
2023/08/10 10:39:38;;;;;;;3.80;2.30;;;;;;;19.91;56.25;99534.02;223372;181;147553;-62
2023/08/10 10:45:14;;;;;;;6.50;2.40;;;;;;;19.87;55.60;99533.65;223439;182;139960;-66
2023/08/10 10:50:22;;;;;;;4.60;2.00;;;;;;;19.91;55.78;99527.16;223321;183;139150;-66
2023/08/10 10:55:27;;;;;;;3.10;2.00;;;;;;;20.03;55.84;99520.52;223394;181;146370;-65
2023/08/10 11:00:33;;;;;;;4.10;1.90;;;;;;;20.28;55.83;99520.38;223386;182;138969;-66
2023/08/10 11:05:37;;;;;;;5.80;2.00;;;;;;;20.78;54.51;99517.41;223303;183;137786;-66
2023/08/10 11:10:43;;;;;;;4.50;2.30;;;;;;;21.27;54.12;99509.92;223354;181;146584;-66
2023/08/10 11:15:47;;;;;;;5.80;2.30;;;;;;;21.46;53.40;99503.55;223376;181;139414;-65
2023/08/10 11:20:56;;;;;;;8.90;3.90;;;;;;;21.38;52.99;99500.88;223433;182;137257;-65
2023/08/10 11:26:04;;;;;;;4.80;2.00;;;;;;;21.23;51.92;99501.68;223337;182;148044;-66
2023/08/10 11:31:08;;;;;;;4.30;1.70;;;;;;;21.21;50.82;99501.54;223271;181;138699;-65
2023/08/10 11:36:12;;;;;;;4.70;1.80;;;;;;;21.67;51.98;99493.25;223484;182;137466;-67
2023/08/10 11:41:15;;;;;;;5.70;1.90;;;;;;;21.72;50.10;99494.22;223338;182;146564;-64
2023/08/10 11:46:20;;;;;;;4.30;1.70;;;;;;;21.62;49.54;99495.10;223259;182;138559;-62
2023/08/10 11:51:30;;;;;;;;;;;;;;;21.54;48.51;99490.82;223536;181;136750;-62
2023/08/10 11:56:34;;;;;;;5.70;1.70;;;;;;;21.62;49.71;99489.34;223411;181;145652;-62
2023/08/10 12:01:52;;;;;;;4.10;1.60;;;;;;;21.87;49.46;99484.92;223453;182;141121;-61
2023/08/10 12:06:55;;;;;;;5.40;1.80;;;;;;;22.21;49.00;99485.11;223387;182;136653;-62
2023/08/10 12:11:59;;;;;;;6.50;1.90;;;;;;;22.00;48.74;99483.61;223363;182;145589;-61
2023/08/10 12:17:12;;;;;;;6.00;1.60;;;;;;;21.86;48.73;99477.46;223378;182;138781;-62
2023/08/10 12:22:15;;;;;;;2.20;1.70;;;;;;;21.75;48.92;99479.13;223440;182;137072;-62
2023/08/10 12:27:18;;;;;;;78.50;64.30;;;;;;;21.58;49.48;99476.30;223446;183;145897;-63
2023/08/10 12:32:21;;;;;;;6.30;3.20;;;;;;;21.77;48.98;99469.59;223459;181;139975;-63
2023/08/10 12:37:25;;;;;;;4.90;1.80;;;;;;;22.24;47.68;99469.66;223502;181;137317;-63
2023/08/10 12:42:28;;;;;;;5.30;1.70;;;;;;;22.85;47.13;99463.52;223492;182;145557;-63
2023/08/10 12:47:31;;;;;;;7.10;3.20;;;;;;;23.48;46.10;99462.52;223437;182;139883;-64
2023/08/10 12:52:34;;;;;;;6.10;3.30;;;;;;;24.05;46.02;99454.17;223337;182;137081;-63
2023/08/10 12:57:39;;;;;;;41.10;34.80;;;;;;;24.49;45.16;99453.17;223470;181;146462;-62
2023/08/10 13:02:44;;;;;;;7.10;5.00;;;;;;;24.85;43.82;99448.55;223392;182;139506;-62
2023/08/10 13:07:52;;;;;;;7.20;3.00;;;;;;;25.18;41.89;99439.10;223263;182;138066;-62
2023/08/10 13:12:55;;;;;;;7.70;2.80;;;;;;;25.55;41.97;99437.40;223427;182;145594;-62
2023/08/10 13:17:58;;;;;;;5.00;2.20;;;;;;;25.89;41.12;99437.81;223421;182;138549;-62
2023/08/10 13:23:02;;;;;;;6.70;2.20;;;;;;;26.19;40.54;99434.61;223486;182;138151;-62
2023/08/10 13:28:05;;;;;;;12.90;9.40;;;;;;;26.41;39.05;99429.88;223489;182;145789;-62
2023/08/10 13:33:18;;;;;;;25.90;23.10;;;;;;;26.64;39.24;99426.90;223470;182;140198;-63
2023/08/10 13:38:21;;;;;;;5.60;3.20;;;;;;;26.90;39.89;99421.10;223395;182;137915;-61
2023/08/10 13:43:25;;;;;;;6.20;3.30;;;;;;;27.11;39.40;99413.59;223433;182;145849;-63
2023/08/10 13:48:28;;;;;;;6.80;2.70;;;;;;;27.13;39.03;99410.77;223386;182;139464;-63
2023/08/10 13:53:31;;;;;;;16.70;11.60;;;;;;;27.16;38.83;99403.54;223420;182;138109;-66
2023/08/10 13:58:36;;;;;;;8.40;2.90;;;;;;;27.04;37.98;99403.63;223332;181;145823;-62
2023/08/10 14:03:39;;;;;;;5.50;2.80;;;;;;;26.50;37.58;99403.66;223140;182;139900;-64
2023/08/10 14:08:43;;;;;;;14.40;10.60;;;;;;;25.63;38.46;99408.65;223343;182;139757;-62
2023/08/10 14:13:47;;;;;;;;;;;;;;;24.95;40.01;99411.27;223289;182;145798;-62
2023/08/10 14:18:51;;;;;;;5.00;2.00;;;;;;;24.38;40.03;99418.36;223417;182;139848;-61
2023/08/10 14:23:54;;;;;;;4.90;2.10;;;;;;;24.14;40.89;99418.80;223331;182;138804;-61
2023/08/10 14:28:57;;;;;;;3.70;2.20;;;;;;;24.00;42.38;99423.31;223337;181;146711;-62
2023/08/10 14:34:01;;;;;;;5.00;2.10;;;;;;;23.66;42.89;99423.48;223242;181;142738;-62
2023/08/10 14:39:04;;;;;;;4.00;2.20;;;;;;;23.35;43.39;99418.21;223347;182;139537;-62
2023/08/10 14:44:07;;;;;;;198.20;160.00;;;;;;;23.10;44.05;99413.15;223257;181;146305;-62
2023/08/10 15:26:33;;;;;;;5.10;2.10;;;;;;;22.31;43.56;99411.77;221741;193;681473;-63
2023/08/10 15:31:36;;;;;;;5.40;2.50;;;;;;;22.24;41.82;99417.42;222813;185;135822;-63
2023/08/10 15:36:40;;;;;;;7.30;2.50;;;;;;;22.22;42.38;99417.96;222767;186;145093;-62
2023/08/10 15:41:43;;;;;;;5.20;2.30;;;;;;;22.23;42.81;99420.20;223321;181;140656;-63
2023/08/10 15:46:46;;;;;;;4.90;2.00;;;;;;;22.23;42.99;99421.86;223233;182;137482;-63
2023/08/10 15:51:49;;;;;;;3.20;2.20;;;;;;;22.19;42.90;99424.55;223521;182;144108;-63
2023/08/10 15:56:52;;;;;;;48.30;39.70;;;;;;;22.17;44.64;99425.14;223274;182;139285;-63
2023/08/10 16:01:57;;;;;;;6.80;3.40;;;;;;;22.16;44.61;99426.92;223457;181;137486;-62
2023/08/10 16:07:01;;;;;;;2.60;2.00;;;;;;;22.15;44.25;99425.87;223320;182;143997;-62
2023/08/10 16:12:05;;;;;;;3.30;2.00;;;;;;;22.15;42.40;99424.46;223267;182;140506;-63
2023/08/10 16:17:09;;;;;;;3.90;2.20;;;;;;;22.18;43.39;99427.21;223249;182;136322;-62
2023/08/10 16:22:12;;;;;;;171.10;150.40;;;;;;;22.21;44.08;99434.11;223316;182;146657;-62
2023/08/10 16:27:15;;;;;;;36.40;27.50;;;;;;;22.23;44.53;99436.99;223172;178;139567;-62
2023/08/10 16:32:19;;;;;;;4.60;3.50;;;;;;;22.19;45.32;99437.55;223307;182;136995;-62
2023/08/10 16:37:22;;;;;;;6.40;2.10;;;;;;;22.11;45.84;99443.67;223168;183;146207;-62
2023/08/10 16:42:25;;;;;;;5.00;3.10;;;;;;;22.02;46.08;99443.74;223295;182;140663;-62
2023/08/10 16:47:29;;;;;;;5.60;2.10;;;;;;;21.94;46.88;99444.30;223289;183;136617;-63
2023/08/10 16:52:35;;;;;;;4.50;1.90;;;;;;;21.86;46.51;99446.95;223243;183;148061;-62
2023/08/10 16:57:38;;;;;;;114.80;84.10;;;;;;;21.83;46.26;99447.73;223096;189;138727;-62
2023/08/10 17:02:42;;;;;;;10.30;7.20;;;;;;;21.80;46.60;99449.96;223098;182;137284;-62
2023/08/10 17:07:46;;;;;;;3.20;2.20;;;;;;;21.72;46.34;99454.83;223066;182;146659;-60
2023/08/10 17:12:49;;;;;;;4.30;2.20;;;;;;;21.66;45.96;99453.52;223095;182;139027;-62
2023/08/10 17:17:53;;;;;;;8.50;2.30;;;;;;;21.56;46.01;99454.14;222993;205;138755;-61
2023/08/10 17:22:57;;;;;;;5.70;2.10;;;;;;;21.46;46.29;99454.23;223143;182;146561;-61
2023/08/10 17:28:01;;;;;;;4.10;2.20;;;;;;;21.34;47.18;99456.66;223188;182;140392;-61
2023/08/10 17:33:04;;;;;;;5.10;2.10;;;;;;;21.21;48.08;99456.02;223168;205;138888;-62
2023/08/10 17:38:08;;;;;;;451.70;391.20;;;;;;;21.09;48.96;99463.71;223204;183;146504;-62
2023/08/10 17:43:12;;;;;;;25.80;22.40;;;;;;;21.02;49.20;99462.39;223089;182;139914;-61
2023/08/10 17:48:15;;;;;;;8.30;4.30;;;;;;;20.96;50.01;99468.06;222982;192;140391;-62
2023/08/10 17:53:18;;;;;;;6.30;2.80;;;;;;;20.81;50.30;99477.11;223022;182;146340;-63
2023/08/10 17:58:22;;;;;;;9.90;3.40;;;;;;;20.67;50.41;99476.11;223056;183;139336;-64
2023/08/10 18:03:26;;;;;;;8.60;2.70;;;;;;;20.55;50.54;99480.58;223141;193;136506;-65
2023/08/10 18:08:29;;;;;;;7.90;2.60;;;;;;;20.41;51.23;99483.79;223145;182;146556;-64
2023/08/10 18:13:32;;;;;;;12.10;2.70;;;;;;;20.27;51.61;99488.20;223034;183;139279;-63
2023/08/10 18:18:36;;;;;;;7.00;2.40;;;;;;;20.13;52.20;99496.94;223100;182;137375;-64
2023/08/10 18:25:52;;;;;;;7.50;3.20;;;;;;;19.97;53.09;99505.30;221446;193;668460;-59
2023/08/10 18:30:55;;;;;;;7.10;2.80;;;;;;;19.82;54.19;99506.89;222483;187;136631;-59
2023/08/10 18:35:59;;;;;;;145.00;104.60;;;;;;;19.70;54.44;99510.52;222608;186;145329;-66
2023/08/10 18:41:02;;;;;;;8.80;5.50;;;;;;;19.66;55.20;99514.65;222745;212;139262;-60
2023/08/10 18:46:05;;;;;;;9.20;3.70;;;;;;;19.55;56.08;99519.56;222750;185;137085;-61
2023/08/10 18:51:08;;;;;;;9.70;3.70;;;;;;;19.43;56.56;99522.70;222740;208;144276;-61
2023/08/10 18:56:11;;;;;;;12.90;4.00;;;;;;;19.30;57.13;99532.90;222990;182;139010;-61
2023/08/10 19:01:15;;;;;;;15.60;4.10;;;;;;;19.17;57.65;99533.30;223087;183;137036;-62
2023/08/10 19:06:20;;;;;;;11.90;4.00;;;;;;;19.05;58.15;99537.80;222981;183;143774;-61
2023/08/10 19:11:23;;;;;;;12.80;4.30;;;;;;;18.94;58.43;99540.56;222901;187;138859;-61
2023/08/10 19:16:30;;;;;;;13.10;4.70;;;;;;;18.84;59.04;99542.13;223080;183;139097;-60
2023/08/10 19:21:34;;;;;;;7.30;3.80;;;;;;;18.76;59.56;99547.39;223034;216;145900;-61
2023/08/10 19:26:38;;;;;;;16.70;4.20;;;;;;;18.67;60.03;99549.52;222941;217;140377;-60
2023/08/10 19:31:44;;;;;;;289.00;233.60;;;;;;;18.60;60.44;99558.10;222978;183;136251;-60
2023/08/10 19:36:47;;;;;;;18.40;9.70;;;;;;;18.61;61.30;99564.11;222956;184;145477;-60
2023/08/10 19:41:51;;;;;;;18.90;5.00;;;;;;;18.53;61.38;99564.78;222983;183;139508;-61
2023/08/10 19:46:54;;;;;;;11.60;4.40;;;;;;;18.42;61.72;99561.11;223144;183;140595;-61
2023/08/10 19:51:57;;;;;;;10.00;4.50;;;;;;;18.32;62.26;99565.75;223141;182;146411;-62
2023/08/10 19:57:02;;;;;;;12.20;4.30;;;;;;;18.23;62.71;99569.38;223155;211;139618;-60
2023/08/10 20:02:05;;;;;;;17.80;4.50;;;;;;;18.12;63.19;99568.84;223051;183;137929;-60
2023/08/10 20:07:09;;;;;;;8.50;4.10;;;;;;;18.01;63.50;99567.63;223087;183;145647;-61
2023/08/10 20:12:13;;;;;;;8.40;4.70;;;;;;;17.96;63.86;99569.11;223019;183;140573;-61
2023/08/10 20:17:16;;;;;;;10.80;4.40;;;;;;;17.94;64.17;99569.81;223152;182;137634;-63
2023/08/10 20:22:21;;;;;;;9.90;4.40;;;;;;;17.93;64.26;99570.67;223046;183;145686;-62
2023/08/10 20:27:24;;;;;;;11.90;5.00;;;;;;;17.89;64.50;99574.02;223099;194;141008;-61
2023/08/10 20:32:27;;;;;;;13.30;5.20;;;;;;;17.82;64.40;99574.27;223085;183;136736;-61
2023/08/10 20:37:30;;;;;;;13.40;5.10;;;;;;;17.77;64.71;99568.77;223216;183;145448;-60
2023/08/10 21:26:04;;;;;;;11.50;4.50;;;;;;;16.97;66.46;99581.92;221808;194;678109;-62
2023/08/10 21:31:08;;;;;;;10.30;4.80;;;;;;;16.93;66.56;99585.25;222590;187;140148;-63
2023/08/10 21:36:12;;;;;;;10.80;5.10;;;;;;;16.92;66.58;99584.48;222682;187;144743;-64
2023/08/10 21:41:15;;;;;;;8.50;4.90;;;;;;;16.87;66.74;99579.11;222499;188;139650;-61
2023/08/10 21:46:18;;;;;;;10.60;5.30;;;;;;;16.80;66.97;99577.84;222778;186;136990;-62
2023/08/10 21:51:21;;;;;;;10.00;4.70;;;;;;;16.73;67.36;99579.43;222765;186;143645;-62
2023/08/10 21:56:25;;;;;;;9.70;5.40;;;;;;;16.68;67.49;99584.33;222807;185;138886;-63
2023/08/10 22:01:28;;;;;;;8.30;4.90;;;;;;;16.61;67.59;99581.15;222862;186;138060;-62
2023/08/10 22:06:31;;;;;;;11.50;4.60;;;;;;;16.57;67.54;99579.84;222801;186;144530;-63
2023/08/10 22:11:35;;;;;;;9.90;4.90;;;;;;;16.58;67.54;99577.23;222983;184;138828;-60
2023/08/10 22:16:38;;;;;;;10.70;5.20;;;;;;;16.58;67.63;99575.45;223102;184;136961;-61
2023/08/10 22:21:42;;;;;;;10.80;4.90;;;;;;;16.55;67.53;99577.44;223068;184;145934;-61
2023/08/10 22:26:45;;;;;;;15.50;5.70;;;;;;;16.47;67.63;99570.37;223083;184;142386;-61
2023/08/10 22:31:48;;;;;;;13.80;5.50;;;;;;;16.39;67.55;99569.77;223061;184;138773;-61
2023/08/10 22:36:51;;;;;;;16.40;5.10;;;;;;;16.31;67.76;99578.25;222956;184;146195;-62
2023/08/10 22:41:55;;;;;;;9.30;5.10;;;;;;;16.18;68.12;99580.36;222980;184;138618;-61
2023/08/10 22:46:58;;;;;;;11.20;5.20;;;;;;;16.08;68.46;99584.66;222847;184;137415;-61
2023/08/10 22:52:02;;;;;;;13.50;4.80;;;;;;;16.02;68.88;99582.43;223067;184;145918;-61
2023/08/10 22:57:16;;;;;;;14.90;5.60;;;;;;;16.02;69.34;99585.70;222960;184;138718;-60
2023/08/10 23:02:19;;;;;;;8.50;4.90;;;;;;;16.07;69.06;99584.25;222966;184;137708;-61
2023/08/10 23:07:22;;;;;;;12.00;4.90;;;;;;;16.08;69.06;99592.93;223035;184;147258;-61
2023/08/10 23:12:25;;;;;;;9.90;4.70;;;;;;;16.14;69.07;99588.13;222987;184;157830;-62
2023/08/10 23:17:30;;;;;;;9.90;4.60;;;;;;;16.16;69.28;99586.20;223039;184;137506;-61
2023/08/10 23:22:33;;;;;;;11.20;4.80;;;;;;;16.12;68.25;99587.25;222973;184;145416;-62
2023/08/10 23:27:37;;;;;;;8.00;4.60;;;;;;;16.13;67.80;99588.39;223033;184;139768;-61
2023/08/10 23:32:41;;;;;;;7.30;3.70;;;;;;;16.12;67.05;99587.56;222965;184;136637;-60
2023/08/10 23:37:44;;;;;;;8.60;4.00;;;;;;;16.08;66.70;99586.85;223063;184;145479;-61
2023/08/10 23:42:47;;;;;;;9.60;3.90;;;;;;;16.01;66.57;99587.19;223070;184;138999;-60
2023/08/10 23:47:51;;;;;;;7.80;4.00;;;;;;;15.95;66.70;99583.52;223143;184;137571;-61
2023/08/10 23:52:54;;;;;;;8.00;4.10;;;;;;;15.89;66.69;99583.48;223021;184;146013;-60
2023/08/10 23:57:58;;;;;;;9.00;3.90;;;;;;;15.84;66.60;99583.28;223130;184;138834;-62
